sensor_id;sensor_type;location;lat;lon;timestamp;P1;durP1;ratioP1;P2;durP2;ratioP2
9716;SDS011;4897;43.570;27.832;2022-10-04T00:00:57;3.88;;;1.30;;
9716;SDS011;4897;43.570;27.832;2022-10-04T00:03:29;1.60;;;1.40;;
9716;SDS011;4897;43.570;27.832;2022-10-04T00:06:00;6.90;;;1.80;;
9716;SDS011;4897;43.570;27.832;2022-10-04T00:08:29;2.88;;;1.60;;
9716;SDS011;4897;43.570;27.832;2022-10-04T00:11:05;3.65;;;1.50;;
9716;SDS011;4897;43.570;27.832;2022-10-04T00:13:38;1.98;;;1.40;;
9716;SDS011;4897;43.570;27.832;2022-10-04T00:16:14;4.30;;;1.60;;
9716;SDS011;4897;43.570;27.832;2022-10-04T00:18:47;2.08;;;1.40;;
9716;SDS011;4897;43.570;27.832;2022-10-04T00:21:14;4.10;;;1.42;;
9716;SDS011;4897;43.570;27.832;2022-10-04T00:23:44;3.03;;;1.48;;
9716;SDS011;4897;43.570;27.832;2022-10-04T00:29:22;1.60;;;1.40;;
9716;SDS011;4897;43.570;27.832;2022-10-04T00:35:00;1.75;;;1.27;;
9716;SDS011;4897;43.570;27.832;2022-10-04T00:37:31;2.47;;;1.48;;
9716;SDS011;4897;43.570;27.832;2022-10-04T00:40:21;2.85;;;1.50;;
9716;SDS011;4897;43.570;27.832;2022-10-04T00:42:54;3.35;;;1.60;;
9716;SDS011;4897;43.570;27.832;2022-10-04T00:45:27;3.80;;;1.70;;
9716;SDS011;4897;43.570;27.832;2022-10-04T00:50:55;3.45;;;1.38;;
9716;SDS011;4897;43.570;27.832;2022-10-04T00:53:36;3.58;;;1.48;;
9716;SDS011;4897;43.570;27.832;2022-10-04T00:56:09;4.97;;;1.90;;
9716;SDS011;4897;43.570;27.832;2022-10-04T00:58:44;2.55;;;1.65;;
9716;SDS011;4897;43.570;27.832;2022-10-04T01:01:28;3.92;;;1.83;;
9716;SDS011;4897;43.570;27.832;2022-10-04T01:04:00;3.20;;;1.30;;
9716;SDS011;4897;43.570;27.832;2022-10-04T01:06:33;6.28;;;1.98;;
9716;SDS011;4897;43.570;27.832;2022-10-04T01:09:02;2.65;;;1.50;;
9716;SDS011;4897;43.570;27.832;2022-10-04T01:11:34;4.28;;;1.75;;
9716;SDS011;4897;43.570;27.832;2022-10-04T01:14:07;2.75;;;1.83;;
9716;SDS011;4897;43.570;27.832;2022-10-04T01:16:38;2.67;;;1.60;;
9716;SDS011;4897;43.570;27.832;2022-10-04T01:19:23;3.80;;;1.80;;
9716;SDS011;4897;43.570;27.832;2022-10-04T01:22:11;3.42;;;1.90;;
9716;SDS011;4897;43.570;27.832;2022-10-04T01:24:44;4.95;;;1.90;;
9716;SDS011;4897;43.570;27.832;2022-10-04T01:27:31;4.43;;;1.52;;
9716;SDS011;4897;43.570;27.832;2022-10-04T01:30:06;3.88;;;1.63;;
9716;SDS011;4897;43.570;27.832;2022-10-04T01:32:35;6.50;;;1.60;;
9716;SDS011;4897;43.570;27.832;2022-10-04T01:35:06;3.53;;;1.67;;
9716;SDS011;4897;43.570;27.832;2022-10-04T01:37:35;2.45;;;1.48;;
9716;SDS011;4897;43.570;27.832;2022-10-04T01:40:05;11.63;;;1.98;;
9716;SDS011;4897;43.570;27.832;2022-10-04T01:42:35;3.15;;;1.80;;
9716;SDS011;4897;43.570;27.832;2022-10-04T01:45:09;2.10;;;1.63;;
9716;SDS011;4897;43.570;27.832;2022-10-04T01:47:43;4.88;;;2.30;;
9716;SDS011;4897;43.570;27.832;2022-10-04T01:50:16;4.38;;;2.20;;
9716;SDS011;4897;43.570;27.832;2022-10-04T01:52:47;5.15;;;2.30;;
9716;SDS011;4897;43.570;27.832;2022-10-04T01:55:23;8.02;;;1.70;;
9716;SDS011;4897;43.570;27.832;2022-10-04T01:57:54;10.85;;;2.13;;
9716;SDS011;4897;43.570;27.832;2022-10-04T02:00:26;3.17;;;1.77;;
9716;SDS011;4897;43.570;27.832;2022-10-04T02:02:55;3.67;;;1.80;;
9716;SDS011;4897;43.570;27.832;2022-10-04T02:05:27;3.40;;;1.60;;
9716;SDS011;4897;43.570;27.832;2022-10-04T02:08:00;3.65;;;1.70;;
9716;SDS011;4897;43.570;27.832;2022-10-04T02:10:31;5.43;;;1.88;;
9716;SDS011;4897;43.570;27.832;2022-10-04T02:13:00;2.15;;;1.58;;
9716;SDS011;4897;43.570;27.832;2022-10-04T02:15:31;6.30;;;1.88;;
9716;SDS011;4897;43.570;27.832;2022-10-04T02:18:04;6.75;;;2.20;;
9716;SDS011;4897;43.570;27.832;2022-10-04T02:20:37;5.30;;;1.63;;
9716;SDS011;4897;43.570;27.832;2022-10-04T02:23:08;4.88;;;1.73;;
9716;SDS011;4897;43.570;27.832;2022-10-04T02:25:38;3.00;;;1.70;;
9716;SDS011;4897;43.570;27.832;2022-10-04T02:28:08;5.30;;;2.00;;
9716;SDS011;4897;43.570;27.832;2022-10-04T02:30:37;3.30;;;1.88;;
9716;SDS011;4897;43.570;27.832;2022-10-04T02:33:06;5.25;;;2.15;;
9716;SDS011;4897;43.570;27.832;2022-10-04T02:35:34;7.28;;;2.28;;
9716;SDS011;4897;43.570;27.832;2022-10-04T02:38:09;2.17;;;1.83;;
9716;SDS011;4897;43.570;27.832;2022-10-04T02:40:46;5.60;;;1.95;;
9716;SDS011;4897;43.570;27.832;2022-10-04T02:43:19;3.47;;;1.90;;
9716;SDS011;4897;43.570;27.832;2022-10-04T02:45:53;2.83;;;1.85;;
9716;SDS011;4897;43.570;27.832;2022-10-04T02:48:29;3.20;;;1.85;;
9716;SDS011;4897;43.570;27.832;2022-10-04T02:51:11;5.68;;;2.15;;
9716;SDS011;4897;43.570;27.832;2022-10-04T02:53:46;5.72;;;1.90;;
9716;SDS011;4897;43.570;27.832;2022-10-04T02:56:18;3.75;;;1.98;;
9716;SDS011;4897;43.570;27.832;2022-10-04T02:58:46;6.30;;;2.08;;
9716;SDS011;4897;43.570;27.832;2022-10-04T03:01:15;11.18;;;2.10;;
9716;SDS011;4897;43.570;27.832;2022-10-04T03:03:50;3.40;;;1.90;;
9716;SDS011;4897;43.570;27.832;2022-10-04T03:06:20;4.57;;;2.20;;
9716;SDS011;4897;43.570;27.832;2022-10-04T03:08:50;4.13;;;2.25;;
9716;SDS011;4897;43.570;27.832;2022-10-04T03:11:21;2.78;;;2.00;;
9716;SDS011;4897;43.570;27.832;2022-10-04T03:13:52;6.05;;;2.65;;
9716;SDS011;4897;43.570;27.832;2022-10-04T03:16:21;5.30;;;2.80;;
9716;SDS011;4897;43.570;27.832;2022-10-04T03:18:49;6.43;;;2.28;;
9716;SDS011;4897;43.570;27.832;2022-10-04T03:21:18;4.63;;;2.45;;
9716;SDS011;4897;43.570;27.832;2022-10-04T03:23:46;4.97;;;2.60;;
9716;SDS011;4897;43.570;27.832;2022-10-04T03:26:19;5.97;;;2.75;;
9716;SDS011;4897;43.570;27.832;2022-10-04T03:28:54;4.35;;;2.50;;
9716;SDS011;4897;43.570;27.832;2022-10-04T03:31:22;4.50;;;2.60;;
9716;SDS011;4897;43.570;27.832;2022-10-04T03:33:52;5.03;;;2.20;;
9716;SDS011;4897;43.570;27.832;2022-10-04T03:36:20;4.78;;;2.88;;
9716;SDS011;4897;43.570;27.832;2022-10-04T03:38:51;5.60;;;2.80;;
9716;SDS011;4897;43.570;27.832;2022-10-04T03:41:20;3.38;;;2.67;;
9716;SDS011;4897;43.570;27.832;2022-10-04T03:43:50;7.82;;;2.88;;
9716;SDS011;4897;43.570;27.832;2022-10-04T03:46:20;8.82;;;3.40;;
9716;SDS011;4897;43.570;27.832;2022-10-04T03:48:50;9.77;;;3.30;;
9716;SDS011;4897;43.570;27.832;2022-10-04T03:51:18;5.35;;;2.70;;
9716;SDS011;4897;43.570;27.832;2022-10-04T03:53:48;4.65;;;2.92;;
9716;SDS011;4897;43.570;27.832;2022-10-04T03:56:18;5.10;;;2.80;;
9716;SDS011;4897;43.570;27.832;2022-10-04T03:58:48;4.70;;;2.65;;
9716;SDS011;4897;43.570;27.832;2022-10-04T04:01:27;5.90;;;2.35;;
9716;SDS011;4897;43.570;27.832;2022-10-04T04:04:06;6.00;;;2.45;;
9716;SDS011;4897;43.570;27.832;2022-10-04T04:06:43;3.80;;;2.30;;
9716;SDS011;4897;43.570;27.832;2022-10-04T04:09:18;5.53;;;2.92;;
9716;SDS011;4897;43.570;27.832;2022-10-04T04:11:48;5.35;;;2.55;;
9716;SDS011;4897;43.570;27.832;2022-10-04T04:14:20;5.80;;;2.50;;
9716;SDS011;4897;43.570;27.832;2022-10-04T04:16:51;8.45;;;2.42;;
9716;SDS011;4897;43.570;27.832;2022-10-04T04:19:20;4.82;;;2.50;;
9716;SDS011;4897;43.570;27.832;2022-10-04T04:21:50;3.92;;;2.17;;
9716;SDS011;4897;43.570;27.832;2022-10-04T04:24:22;5.80;;;2.80;;
9716;SDS011;4897;43.570;27.832;2022-10-04T04:26:52;5.25;;;2.90;;
9716;SDS011;4897;43.570;27.832;2022-10-04T04:29:25;3.92;;;2.60;;
9716;SDS011;4897;43.570;27.832;2022-10-04T04:31:58;5.22;;;2.60;;
9716;SDS011;4897;43.570;27.832;2022-10-04T04:34:29;4.88;;;2.60;;
9716;SDS011;4897;43.570;27.832;2022-10-04T04:36:58;7.13;;;2.83;;
9716;SDS011;4897;43.570;27.832;2022-10-04T04:39:27;4.18;;;2.78;;
9716;SDS011;4897;43.570;27.832;2022-10-04T04:42:11;17.70;;;2.60;;
9716;SDS011;4897;43.570;27.832;2022-10-04T04:44:47;6.68;;;2.60;;
9716;SDS011;4897;43.570;27.832;2022-10-04T04:47:26;8.48;;;2.67;;
9716;SDS011;4897;43.570;27.832;2022-10-04T04:50:02;5.28;;;2.28;;
9716;SDS011;4897;43.570;27.832;2022-10-04T04:52:31;5.43;;;2.83;;
9716;SDS011;4897;43.570;27.832;2022-10-04T04:55:00;7.28;;;2.78;;
9716;SDS011;4897;43.570;27.832;2022-10-04T04:57:28;4.03;;;2.60;;
9716;SDS011;4897;43.570;27.832;2022-10-04T04:59:57;4.38;;;2.40;;
9716;SDS011;4897;43.570;27.832;2022-10-04T05:02:30;8.77;;;2.30;;
9716;SDS011;4897;43.570;27.832;2022-10-04T05:08:02;12.73;;;2.95;;
9716;SDS011;4897;43.570;27.832;2022-10-04T05:10:34;7.22;;;2.30;;
9716;SDS011;4897;43.570;27.832;2022-10-04T05:13:02;4.32;;;2.13;;
9716;SDS011;4897;43.570;27.832;2022-10-04T05:15:33;6.05;;;2.60;;
9716;SDS011;4897;43.570;27.832;2022-10-04T05:18:11;3.45;;;2.05;;
9716;SDS011;4897;43.570;27.832;2022-10-04T05:20:43;5.03;;;2.40;;
9716;SDS011;4897;43.570;27.832;2022-10-04T05:23:13;7.00;;;2.40;;
9716;SDS011;4897;43.570;27.832;2022-10-04T05:25:41;6.57;;;2.42;;
9716;SDS011;4897;43.570;27.832;2022-10-04T05:28:08;4.82;;;2.45;;
9716;SDS011;4897;43.570;27.832;2022-10-04T05:30:40;54.85;;;34.97;;
9716;SDS011;4897;43.570;27.832;2022-10-04T05:33:17;8.32;;;2.80;;
9716;SDS011;4897;43.570;27.832;2022-10-04T05:35:54;6.97;;;2.42;;
9716;SDS011;4897;43.570;27.832;2022-10-04T05:38:35;4.65;;;2.20;;
9716;SDS011;4897;43.570;27.832;2022-10-04T05:41:12;4.65;;;2.08;;
9716;SDS011;4897;43.570;27.832;2022-10-04T05:43:47;5.07;;;2.63;;
9716;SDS011;4897;43.570;27.832;2022-10-04T05:46:21;5.13;;;3.55;;
9716;SDS011;4897;43.570;27.832;2022-10-04T05:48:53;5.07;;;3.20;;
9716;SDS011;4897;43.570;27.832;2022-10-04T05:51:24;8.23;;;3.03;;
9716;SDS011;4897;43.570;27.832;2022-10-04T05:53:54;8.07;;;2.45;;
9716;SDS011;4897;43.570;27.832;2022-10-04T05:56:35;7.32;;;3.03;;
9716;SDS011;4897;43.570;27.832;2022-10-04T05:59:34;9.00;;;2.78;;
9716;SDS011;4897;43.570;27.832;2022-10-04T06:02:14;4.95;;;2.63;;
9716;SDS011;4897;43.570;27.832;2022-10-04T06:04:54;6.88;;;2.75;;
9716;SDS011;4897;43.570;27.832;2022-10-04T06:07:33;9.43;;;3.20;;
9716;SDS011;4897;43.570;27.832;2022-10-04T06:10:18;7.00;;;3.13;;
9716;SDS011;4897;43.570;27.832;2022-10-04T06:13:13;4.10;;;2.53;;
9716;SDS011;4897;43.570;27.832;2022-10-04T06:16:02;4.65;;;2.30;;
9716;SDS011;4897;43.570;27.832;2022-10-04T06:21:34;7.43;;;2.55;;
9716;SDS011;4897;43.570;27.832;2022-10-04T06:24:12;3.67;;;1.90;;
9716;SDS011;4897;43.570;27.832;2022-10-04T06:26:45;4.60;;;1.90;;
9716;SDS011;4897;43.570;27.832;2022-10-04T06:29:18;10.73;;;7.38;;
9716;SDS011;4897;43.570;27.832;2022-10-04T06:38:18;2.60;;;1.70;;
9716;SDS011;4897;43.570;27.832;2022-10-04T06:41:06;2.88;;;1.70;;
9716;SDS011;4897;43.570;27.832;2022-10-04T06:43:50;4.40;;;1.88;;
9716;SDS011;4897;43.570;27.832;2022-10-04T06:46:56;10.93;;;1.88;;
9716;SDS011;4897;43.570;27.832;2022-10-04T06:49:32;3.67;;;1.95;;
9716;SDS011;4897;43.570;27.832;2022-10-04T06:55:18;3.40;;;1.50;;
9716;SDS011;4897;43.570;27.832;2022-10-04T06:58:24;2.90;;;1.80;;
9716;SDS011;4897;43.570;27.832;2022-10-04T07:01:26;2.80;;;1.80;;
9716;SDS011;4897;43.570;27.832;2022-10-04T07:03:56;5.05;;;1.77;;
9716;SDS011;4897;43.570;27.832;2022-10-04T07:06:33;3.38;;;1.40;;
9716;SDS011;4897;43.570;27.832;2022-10-04T07:09:06;2.75;;;1.63;;
9716;SDS011;4897;43.570;27.832;2022-10-04T07:11:46;2.33;;;1.60;;
9716;SDS011;4897;43.570;27.832;2022-10-04T07:14:19;5.95;;;1.70;;
9716;SDS011;4897;43.570;27.832;2022-10-04T07:16:55;2.33;;;1.45;;
9716;SDS011;4897;43.570;27.832;2022-10-04T07:19:30;4.93;;;1.90;;
9716;SDS011;4897;43.570;27.832;2022-10-04T07:22:02;4.32;;;1.50;;
9716;SDS011;4897;43.570;27.832;2022-10-04T07:25:02;4.35;;;1.73;;
9716;SDS011;4897;43.570;27.832;2022-10-04T07:27:44;7.95;;;2.13;;
9716;SDS011;4897;43.570;27.832;2022-10-04T07:30:40;3.15;;;1.55;;
9716;SDS011;4897;43.570;27.832;2022-10-04T07:33:12;5.32;;;1.90;;
9716;SDS011;4897;43.570;27.832;2022-10-04T07:35:46;10.25;;;1.80;;
9716;SDS011;4897;43.570;27.832;2022-10-04T07:38:19;4.47;;;1.58;;
9716;SDS011;4897;43.570;27.832;2022-10-04T07:41:02;8.85;;;4.65;;
9716;SDS011;4897;43.570;27.832;2022-10-04T07:43:37;3.17;;;1.42;;
9716;SDS011;4897;43.570;27.832;2022-10-04T07:46:13;4.30;;;1.63;;
9716;SDS011;4897;43.570;27.832;2022-10-04T07:48:48;2.10;;;1.40;;
9716;SDS011;4897;43.570;27.832;2022-10-04T07:51:22;3.22;;;1.73;;
9716;SDS011;4897;43.570;27.832;2022-10-04T07:53:58;4.40;;;1.60;;
9716;SDS011;4897;43.570;27.832;2022-10-04T07:56:37;4.63;;;1.60;;
9716;SDS011;4897;43.570;27.832;2022-10-04T07:59:21;11.73;;;1.90;;
9716;SDS011;4897;43.570;27.832;2022-10-04T08:02:01;2.30;;;1.40;;
9716;SDS011;4897;43.570;27.832;2022-10-04T08:04:41;3.20;;;1.52;;
9716;SDS011;4897;43.570;27.832;2022-10-04T08:07:19;2.15;;;1.30;;
9716;SDS011;4897;43.570;27.832;2022-10-04T08:09:56;7.93;;;2.17;;
9716;SDS011;4897;43.570;27.832;2022-10-04T08:12:33;3.22;;;1.45;;
9716;SDS011;4897;43.570;27.832;2022-10-04T08:15:27;2.03;;;1.42;;
9716;SDS011;4897;43.570;27.832;2022-10-04T08:18:04;2.97;;;1.60;;
9716;SDS011;4897;43.570;27.832;2022-10-04T08:20:45;8.43;;;2.17;;
9716;SDS011;4897;43.570;27.832;2022-10-04T08:23:20;3.47;;;1.85;;
9716;SDS011;4897;43.570;27.832;2022-10-04T08:26:06;3.10;;;1.55;;
9716;SDS011;4897;43.570;27.832;2022-10-04T08:28:43;4.25;;;1.52;;
9716;SDS011;4897;43.570;27.832;2022-10-04T08:31:36;5.93;;;1.75;;
9716;SDS011;4897;43.570;27.832;2022-10-04T08:34:16;8.15;;;2.05;;
9716;SDS011;4897;43.570;27.832;2022-10-04T08:36:58;2.05;;;1.30;;
9716;SDS011;4897;43.570;27.832;2022-10-04T08:39:37;2.80;;;1.70;;
9716;SDS011;4897;43.570;27.832;2022-10-04T08:42:23;2.13;;;1.38;;
9716;SDS011;4897;43.570;27.832;2022-10-04T08:48:24;4.97;;;2.25;;
9716;SDS011;4897;43.570;27.832;2022-10-04T08:54:21;2.40;;;1.58;;
9716;SDS011;4897;43.570;27.832;2022-10-04T08:57:12;4.13;;;1.60;;
9716;SDS011;4897;43.570;27.832;2022-10-04T09:05:59;2.67;;;1.35;;
9716;SDS011;4897;43.570;27.832;2022-10-04T09:11:48;7.25;;;1.50;;
9716;SDS011;4897;43.570;27.832;2022-10-04T09:17:28;1.80;;;1.30;;
9716;SDS011;4897;43.570;27.832;2022-10-04T09:20:14;3.35;;;1.92;;
9716;SDS011;4897;43.570;27.832;2022-10-04T09:22:52;4.72;;;1.60;;
9716;SDS011;4897;43.570;27.832;2022-10-04T09:28:30;3.75;;;1.70;;
9716;SDS011;4897;43.570;27.832;2022-10-04T09:31:25;2.17;;;1.63;;
9716;SDS011;4897;43.570;27.832;2022-10-04T09:34:12;2.40;;;1.35;;
9716;SDS011;4897;43.570;27.832;2022-10-04T09:39:47;2.35;;;1.40;;
9716;SDS011;4897;43.570;27.832;2022-10-04T09:42:54;6.70;;;2.00;;
9716;SDS011;4897;43.570;27.832;2022-10-04T09:45:57;3.58;;;1.35;;
9716;SDS011;4897;43.570;27.832;2022-10-04T09:48:36;1.10;;;1.00;;
9716;SDS011;4897;43.570;27.832;2022-10-04T09:54:11;1.50;;;1.17;;
9716;SDS011;4897;43.570;27.832;2022-10-04T09:56:56;4.97;;;1.88;;
9716;SDS011;4897;43.570;27.832;2022-10-04T09:59:48;2.35;;;1.17;;
9716;SDS011;4897;43.570;27.832;2022-10-04T10:02:35;4.22;;;2.40;;
9716;SDS011;4897;43.570;27.832;2022-10-04T10:05:27;3.33;;;1.80;;
9716;SDS011;4897;43.570;27.832;2022-10-04T10:08:07;1.80;;;1.70;;
9716;SDS011;4897;43.570;27.832;2022-10-04T10:10:44;4.75;;;1.48;;
9716;SDS011;4897;43.570;27.832;2022-10-04T10:13:51;3.15;;;1.20;;
9716;SDS011;4897;43.570;27.832;2022-10-04T10:16:37;1.88;;;1.20;;
9716;SDS011;4897;43.570;27.832;2022-10-04T10:19:30;1.92;;;1.48;;
9716;SDS011;4897;43.570;27.832;2022-10-04T10:22:14;5.10;;;1.70;;
9716;SDS011;4897;43.570;27.832;2022-10-04T10:31:07;3.38;;;1.70;;
9716;SDS011;4897;43.570;27.832;2022-10-04T10:36:50;2.92;;;1.98;;
9716;SDS011;4897;43.570;27.832;2022-10-04T10:39:43;5.88;;;1.60;;
9716;SDS011;4897;43.570;27.832;2022-10-04T10:45:45;6.03;;;1.48;;
9716;SDS011;4897;43.570;27.832;2022-10-04T10:48:22;1.85;;;1.50;;
9716;SDS011;4897;43.570;27.832;2022-10-04T10:51:00;2.38;;;1.30;;
9716;SDS011;4897;43.570;27.832;2022-10-04T10:57:04;3.88;;;1.20;;
9716;SDS011;4897;43.570;27.832;2022-10-04T11:08:47;2.17;;;1.40;;
9716;SDS011;4897;43.570;27.832;2022-10-04T11:11:49;2.65;;;1.30;;
9716;SDS011;4897;43.570;27.832;2022-10-04T11:17:34;3.55;;;1.90;;
9716;SDS011;4897;43.570;27.832;2022-10-04T11:20:51;3.20;;;1.42;;
9716;SDS011;4897;43.570;27.832;2022-10-04T11:29:41;4.20;;;1.80;;
9716;SDS011;4897;43.570;27.832;2022-10-04T11:36:10;3.03;;;1.70;;
9716;SDS011;4897;43.570;27.832;2022-10-04T11:39:01;4.43;;;1.63;;
9716;SDS011;4897;43.570;27.832;2022-10-04T11:41:52;1.85;;;1.27;;
9716;SDS011;4897;43.570;27.832;2022-10-04T11:44:37;3.13;;;1.60;;
9716;SDS011;4897;43.570;27.832;2022-10-04T11:47:34;6.97;;;1.35;;
9716;SDS011;4897;43.570;27.832;2022-10-04T11:50:16;9.38;;;2.17;;
9716;SDS011;4897;43.570;27.832;2022-10-04T11:53:05;2.97;;;1.65;;
9716;SDS011;4897;43.570;27.832;2022-10-04T11:55:58;3.13;;;1.90;;
9716;SDS011;4897;43.570;27.832;2022-10-04T11:58:47;7.88;;;1.52;;
9716;SDS011;4897;43.570;27.832;2022-10-04T12:04:47;2.13;;;1.25;;
9716;SDS011;4897;43.570;27.832;2022-10-04T12:07:42;2.03;;;1.20;;
9716;SDS011;4897;43.570;27.832;2022-10-04T12:10:22;1.85;;;1.10;;
9716;SDS011;4897;43.570;27.832;2022-10-04T12:16:14;2.15;;;1.40;;
9716;SDS011;4897;43.570;27.832;2022-10-04T12:22:07;4.63;;;2.00;;
9716;SDS011;4897;43.570;27.832;2022-10-04T12:24:49;8.70;;;2.30;;
9716;SDS011;4897;43.570;27.832;2022-10-04T12:27:40;4.38;;;2.20;;
9716;SDS011;4897;43.570;27.832;2022-10-04T12:30:29;5.78;;;2.08;;
9716;SDS011;4897;43.570;27.832;2022-10-04T12:33:10;5.25;;;2.78;;
9716;SDS011;4897;43.570;27.832;2022-10-04T12:35:48;8.18;;;3.28;;
9716;SDS011;4897;43.570;27.832;2022-10-04T12:38:35;8.25;;;2.00;;
9716;SDS011;4897;43.570;27.832;2022-10-04T12:41:26;1.90;;;1.30;;
9716;SDS011;4897;43.570;27.832;2022-10-04T12:44:06;2.22;;;1.67;;
9716;SDS011;4897;43.570;27.832;2022-10-04T12:46:50;3.15;;;1.70;;
9716;SDS011;4897;43.570;27.832;2022-10-04T12:49:30;1.70;;;1.50;;
9716;SDS011;4897;43.570;27.832;2022-10-04T12:52:10;26.40;;;15.60;;
9716;SDS011;4897;43.570;27.832;2022-10-04T12:54:45;4.22;;;2.80;;
9716;SDS011;4897;43.570;27.832;2022-10-04T12:57:23;1.30;;;1.20;;
9716;SDS011;4897;43.570;27.832;2022-10-04T13:00:12;3.47;;;1.08;;
9716;SDS011;4897;43.570;27.832;2022-10-04T13:02:52;1.77;;;1.02;;
9716;SDS011;4897;43.570;27.832;2022-10-04T13:05:38;1.88;;;0.98;;
9716;SDS011;4897;43.570;27.832;2022-10-04T13:08:22;4.43;;;3.10;;
9716;SDS011;4897;43.570;27.832;2022-10-04T13:11:11;1.30;;;1.10;;
9716;SDS011;4897;43.570;27.832;2022-10-04T13:17:00;1.58;;;0.85;;
9716;SDS011;4897;43.570;27.832;2022-10-04T13:19:38;1.33;;;0.90;;
9716;SDS011;4897;43.570;27.832;2022-10-04T13:22:31;1.23;;;0.90;;
9716;SDS011;4897;43.570;27.832;2022-10-04T13:28:18;1.92;;;1.05;;
9716;SDS011;4897;43.570;27.832;2022-10-04T13:30:53;5.00;;;1.58;;
9716;SDS011;4897;43.570;27.832;2022-10-04T13:33:30;1.30;;;1.00;;
9716;SDS011;4897;43.570;27.832;2022-10-04T13:36:04;2.33;;;1.20;;
9716;SDS011;4897;43.570;27.832;2022-10-04T13:38:38;3.05;;;1.38;;
9716;SDS011;4897;43.570;27.832;2022-10-04T13:41:28;3.05;;;2.28;;
9716;SDS011;4897;43.570;27.832;2022-10-04T13:44:23;6.43;;;2.88;;
9716;SDS011;4897;43.570;27.832;2022-10-04T13:47:03;2.80;;;1.73;;
9716;SDS011;4897;43.570;27.832;2022-10-04T13:49:49;3.55;;;1.25;;
9716;SDS011;4897;43.570;27.832;2022-10-04T13:52:35;7.93;;;1.80;;
9716;SDS011;4897;43.570;27.832;2022-10-04T13:55:31;3.83;;;1.80;;
9716;SDS011;4897;43.570;27.832;2022-10-04T13:58:27;43.30;;;27.52;;
9716;SDS011;4897;43.570;27.832;2022-10-04T14:01:20;107.20;;;92.78;;
9716;SDS011;4897;43.570;27.832;2022-10-04T14:04:10;8.80;;;3.90;;
9716;SDS011;4897;43.570;27.832;2022-10-04T14:07:07;8.50;;;1.83;;
9716;SDS011;4897;43.570;27.832;2022-10-04T14:09:55;1.80;;;1.30;;
9716;SDS011;4897;43.570;27.832;2022-10-04T14:13:09;4.47;;;1.80;;
9716;SDS011;4897;43.570;27.832;2022-10-04T14:16:03;9.95;;;1.58;;
9716;SDS011;4897;43.570;27.832;2022-10-04T14:22:08;2.40;;;1.77;;
9716;SDS011;4897;43.570;27.832;2022-10-04T14:28:00;2.53;;;2.10;;
9716;SDS011;4897;43.570;27.832;2022-10-04T14:31:02;3.75;;;1.58;;
9716;SDS011;4897;43.570;27.832;2022-10-04T14:33:57;4.63;;;2.78;;
9716;SDS011;4897;43.570;27.832;2022-10-04T14:36:53;7.60;;;2.20;;
9716;SDS011;4897;43.570;27.832;2022-10-04T14:39:57;5.22;;;1.88;;
9716;SDS011;4897;43.570;27.832;2022-10-04T14:42:51;16.85;;;4.75;;
9716;SDS011;4897;43.570;27.832;2022-10-04T14:45:37;24.15;;;5.57;;
9716;SDS011;4897;43.570;27.832;2022-10-04T14:51:19;11.98;;;6.07;;
9716;SDS011;4897;43.570;27.832;2022-10-04T14:54:24;10.80;;;2.90;;
9716;SDS011;4897;43.570;27.832;2022-10-04T14:56:59;15.52;;;2.58;;
9716;SDS011;4897;43.570;27.832;2022-10-04T15:02:37;13.13;;;8.30;;
9716;SDS011;4897;43.570;27.832;2022-10-04T15:05:34;10.98;;;6.05;;
9716;SDS011;4897;43.570;27.832;2022-10-04T15:08:27;11.73;;;4.20;;
9716;SDS011;4897;43.570;27.832;2022-10-04T15:11:32;7.78;;;3.00;;
9716;SDS011;4897;43.570;27.832;2022-10-04T15:14:35;8.60;;;4.10;;
9716;SDS011;4897;43.570;27.832;2022-10-04T15:17:06;10.95;;;3.13;;
9716;SDS011;4897;43.570;27.832;2022-10-04T15:22:30;8.80;;;3.53;;
9716;SDS011;4897;43.570;27.832;2022-10-04T15:28:06;9.10;;;3.15;;
9716;SDS011;4897;43.570;27.832;2022-10-04T15:30:48;10.80;;;3.10;;
9716;SDS011;4897;43.570;27.832;2022-10-04T15:33:24;10.90;;;3.80;;
9716;SDS011;4897;43.570;27.832;2022-10-04T15:39:21;14.68;;;3.97;;
9716;SDS011;4897;43.570;27.832;2022-10-04T15:42:04;9.30;;;4.43;;
9716;SDS011;4897;43.570;27.832;2022-10-04T15:44:46;21.95;;;6.50;;
9716;SDS011;4897;43.570;27.832;2022-10-04T15:47:27;25.92;;;5.82;;
9716;SDS011;4897;43.570;27.832;2022-10-04T15:50:03;18.55;;;5.35;;
9716;SDS011;4897;43.570;27.832;2022-10-04T15:52:50;14.85;;;4.95;;
9716;SDS011;4897;43.570;27.832;2022-10-04T15:58:48;26.23;;;4.80;;
9716;SDS011;4897;43.570;27.832;2022-10-04T16:01:36;11.32;;;3.75;;
9716;SDS011;4897;43.570;27.832;2022-10-04T16:07:17;18.63;;;5.32;;
9716;SDS011;4897;43.570;27.832;2022-10-04T16:10:07;152.32;;;79.40;;
9716;SDS011;4897;43.570;27.832;2022-10-04T16:12:55;61.60;;;34.17;;
9716;SDS011;4897;43.570;27.832;2022-10-04T16:15:35;27.33;;;13.80;;
9716;SDS011;4897;43.570;27.832;2022-10-04T16:18:13;41.40;;;11.82;;
9716;SDS011;4897;43.570;27.832;2022-10-04T16:20:58;22.48;;;9.70;;
9716;SDS011;4897;43.570;27.832;2022-10-04T16:23:32;26.20;;;11.73;;
9716;SDS011;4897;43.570;27.832;2022-10-04T16:26:01;22.13;;;9.52;;
9716;SDS011;4897;43.570;27.832;2022-10-04T16:28:37;20.90;;;8.77;;
9716;SDS011;4897;43.570;27.832;2022-10-04T16:31:20;21.60;;;8.77;;
9716;SDS011;4897;43.570;27.832;2022-10-04T16:33:55;22.17;;;7.70;;
9716;SDS011;4897;43.570;27.832;2022-10-04T16:36:29;24.33;;;7.57;;
9716;SDS011;4897;43.570;27.832;2022-10-04T16:39:10;19.83;;;7.60;;
9716;SDS011;4897;43.570;27.832;2022-10-04T16:41:56;34.45;;;9.40;;
9716;SDS011;4897;43.570;27.832;2022-10-04T16:44:32;28.25;;;11.70;;
9716;SDS011;4897;43.570;27.832;2022-10-04T16:47:09;50.33;;;11.85;;
9716;SDS011;4897;43.570;27.832;2022-10-04T16:49:48;26.55;;;8.63;;
9716;SDS011;4897;43.570;27.832;2022-10-04T16:55:24;21.55;;;8.07;;
9716;SDS011;4897;43.570;27.832;2022-10-04T17:04:42;42.22;;;15.27;;
9716;SDS011;4897;43.570;27.832;2022-10-04T17:07:31;57.20;;;23.85;;
9716;SDS011;4897;43.570;27.832;2022-10-04T17:10:26;63.83;;;29.27;;
9716;SDS011;4897;43.570;27.832;2022-10-04T17:13:00;82.40;;;44.35;;
9716;SDS011;4897;43.570;27.832;2022-10-04T17:15:45;72.20;;;38.33;;
9716;SDS011;4897;43.570;27.832;2022-10-04T17:18:25;56.75;;;29.70;;
9716;SDS011;4897;43.570;27.832;2022-10-04T17:21:03;68.30;;;26.08;;
9716;SDS011;4897;43.570;27.832;2022-10-04T17:23:48;58.72;;;27.00;;
9716;SDS011;4897;43.570;27.832;2022-10-04T17:29:35;58.42;;;27.77;;
9716;SDS011;4897;43.570;27.832;2022-10-04T17:32:13;53.40;;;25.27;;
9716;SDS011;4897;43.570;27.832;2022-10-04T17:34:51;46.92;;;23.45;;
9716;SDS011;4897;43.570;27.832;2022-10-04T17:37:34;74.13;;;25.67;;
9716;SDS011;4897;43.570;27.832;2022-10-04T17:43:02;43.92;;;20.58;;
9716;SDS011;4897;43.570;27.832;2022-10-04T17:45:46;45.17;;;22.23;;
9716;SDS011;4897;43.570;27.832;2022-10-04T17:48:22;52.88;;;23.30;;
9716;SDS011;4897;43.570;27.832;2022-10-04T17:51:11;41.83;;;23.30;;
9716;SDS011;4897;43.570;27.832;2022-10-04T17:54:13;45.55;;;21.70;;
9716;SDS011;4897;43.570;27.832;2022-10-04T17:57:09;23.00;;;11.82;;
9716;SDS011;4897;43.570;27.832;2022-10-04T17:59:45;20.02;;;6.90;;
9716;SDS011;4897;43.570;27.832;2022-10-04T18:02:19;26.10;;;9.68;;
9716;SDS011;4897;43.570;27.832;2022-10-04T18:04:52;12.80;;;6.90;;
9716;SDS011;4897;43.570;27.832;2022-10-04T18:07:23;19.73;;;7.30;;
9716;SDS011;4897;43.570;27.832;2022-10-04T18:09:55;19.48;;;10.93;;
9716;SDS011;4897;43.570;27.832;2022-10-04T18:12:26;26.27;;;11.32;;
9716;SDS011;4897;43.570;27.832;2022-10-04T18:14:57;24.38;;;9.65;;
9716;SDS011;4897;43.570;27.832;2022-10-04T18:17:33;17.15;;;8.90;;
9716;SDS011;4897;43.570;27.832;2022-10-04T18:22:55;23.15;;;11.75;;
9716;SDS011;4897;43.570;27.832;2022-10-04T18:25:26;30.88;;;17.58;;
9716;SDS011;4897;43.570;27.832;2022-10-04T18:27:59;26.20;;;16.20;;
9716;SDS011;4897;43.570;27.832;2022-10-04T18:30:30;27.75;;;16.33;;
9716;SDS011;4897;43.570;27.832;2022-10-04T18:32:58;35.45;;;16.48;;
9716;SDS011;4897;43.570;27.832;2022-10-04T18:35:26;22.98;;;11.77;;
9716;SDS011;4897;43.570;27.832;2022-10-04T18:37:56;28.83;;;14.55;;
9716;SDS011;4897;43.570;27.832;2022-10-04T18:40:53;29.13;;;15.25;;
9716;SDS011;4897;43.570;27.832;2022-10-04T18:43:23;32.17;;;12.75;;